DLH480 EDDM-KDEN
Flight info
| Callsign | DLH480 |
|---|---|
| Flight time | N/A |
| Altitude | 36000 |
| Route | GIVMI6Q GIVMI Y101 INBED DCT REKDI DCT LOHRE DCT ADKUV DCT LENDO DCT SOGRI DCT DENUT L610 KOPUL Q60 OKSAW DCT TEWXI DCT VATRY/N0483F380 DCT SUTEX DCT RIKUL DCT DOGAL/M085F390 NATA ALLRY/N0483F400 DCT ANCER DCT YYB DCT SSM DCT GEP J114 ONL DCT PORDR AALLE4 |
| Aircraft | A359/H-SDE2E3GHIJ1J3J4J5LM1ORWXY/LB1D1 |
Departure
| Time | 2026-05-01 08:59 |
|---|---|
| Airport | Munich Airport (EDDM) |
Arrival
| Time | N/A |
|---|---|
| Airport | Denver International Airport (KDEN) |
| Time | Latitude | Longitude | Altitude | Speed | Heading |
|---|---|---|---|---|---|
| 2026-05-01 08:21 | 48.35260 | 11.80023 | 1476 ft | 0 kts | 263° |
| 2026-05-01 08:24 | 48.35259 | 11.80015 | 1491 ft | 0 kts | 263° |
| 2026-05-01 08:25 | 48.35338 | 11.80012 | 1489 ft | 0 kts | 263° |
| 2026-05-01 08:26 | 48.35581 | 11.79712 | 1479 ft | 0 kts | 83° |
| 2026-05-01 08:45 | 48.35582 | 11.79722 | 1478 ft | 3 kts | 83° |
| 2026-05-01 08:45 | 48.35579 | 11.79682 | 1476 ft | 4 kts | 83° |
| 2026-05-01 08:46 | 48.35576 | 11.79641 | 1476 ft | 3 kts | 83° |
| 2026-05-01 08:46 | 48.35573 | 11.79610 | 1476 ft | 4 kts | 72° |
| 2026-05-01 08:46 | 48.35561 | 11.79579 | 1476 ft | 4 kts | 25° |
| 2026-05-01 08:46 | 48.35538 | 11.79575 | 1476 ft | 4 kts | 353° |
| 2026-05-01 08:47 | 48.35516 | 11.79579 | 1477 ft | 1 kts | 353° |
| 2026-05-01 08:47 | 48.35527 | 11.79577 | 1476 ft | 0 kts | 353° |
| 2026-05-01 08:50 | 48.35529 | 11.79577 | 1476 ft | 2 kts | 353° |
| 2026-05-01 08:50 | 48.35573 | 11.79570 | 1476 ft | 11 kts | 354° |
| 2026-05-01 08:51 | 48.35657 | 11.79556 | 1480 ft | 13 kts | 353° |
| 2026-05-01 08:51 | 48.35746 | 11.79539 | 1480 ft | 13 kts | 353° |
| 2026-05-01 08:51 | 48.35841 | 11.79523 | 1489 ft | 14 kts | 353° |
| 2026-05-01 08:51 | 48.35934 | 11.79507 | 1487 ft | 12 kts | 353° |
| 2026-05-01 08:52 | 48.35999 | 11.79495 | 1484 ft | 7 kts | 353° |
| 2026-05-01 08:52 | 48.36055 | 11.79485 | 1486 ft | 9 kts | 353° |
| 2026-05-01 08:52 | 48.36095 | 11.79431 | 1479 ft | 8 kts | 285° |
| 2026-05-01 08:52 | 48.36093 | 11.79323 | 1484 ft | 13 kts | 265° |
| 2026-05-01 08:53 | 48.36082 | 11.79179 | 1485 ft | 14 kts | 263° |
| 2026-05-01 08:53 | 48.36071 | 11.79023 | 1480 ft | 16 kts | 263° |
| 2026-05-01 08:53 | 48.36058 | 11.78856 | 1485 ft | 17 kts | 263° |
| 2026-05-01 08:53 | 48.36045 | 11.78680 | 1491 ft | 18 kts | 263° |
| 2026-05-01 08:54 | 48.36030 | 11.78491 | 1481 ft | 19 kts | 263° |
| 2026-05-01 08:54 | 48.36016 | 11.78305 | 1485 ft | 17 kts | 263° |
| 2026-05-01 08:54 | 48.36007 | 11.78189 | 1487 ft | 17 kts | 263° |
| 2026-05-01 08:54 | 48.35992 | 11.78001 | 1480 ft | 18 kts | 263° |
| 2026-05-01 08:55 | 48.35978 | 11.77813 | 1480 ft | 19 kts | 263° |
| 2026-05-01 08:55 | 48.35962 | 11.77611 | 1478 ft | 20 kts | 263° |
| 2026-05-01 08:55 | 48.35948 | 11.77432 | 1480 ft | 15 kts | 263° |
| 2026-05-01 08:55 | 48.35936 | 11.77276 | 1479 ft | 15 kts | 263° |
| 2026-05-01 08:56 | 48.35924 | 11.77114 | 1482 ft | 15 kts | 263° |
| 2026-05-01 08:56 | 48.35913 | 11.76970 | 1491 ft | 13 kts | 268° |
| 2026-05-01 08:56 | 48.35951 | 11.76852 | 1483 ft | 13 kts | 321° |
| 2026-05-01 08:56 | 48.36040 | 11.76816 | 1478 ft | 13 kts | 353° |
| 2026-05-01 08:57 | 48.36102 | 11.76805 | 1480 ft | 9 kts | 353° |
| 2026-05-01 08:57 | 48.36167 | 11.76793 | 1487 ft | 10 kts | 353° |
| 2026-05-01 08:57 | 48.36240 | 11.76783 | 1481 ft | 11 kts | 359° |
| 2026-05-01 08:57 | 48.36282 | 11.76847 | 1483 ft | 9 kts | 73° |
| 2026-05-01 08:58 | 48.36286 | 11.76890 | 1479 ft | 0 kts | 84° |
| 2026-05-01 08:58 | 48.36291 | 11.76961 | 1481 ft | 28 kts | 83° |
| 2026-05-01 08:59 | 48.36341 | 11.77589 | 1478 ft | 91 kts | 83° |
| 2026-05-01 08:59 | 48.36440 | 11.78883 | 1479 ft | 145 kts | 83° |
| 2026-05-01 08:59 | 48.36582 | 11.80658 | 1895 ft | 161 kts | 84° |
| 2026-05-01 08:59 | 48.36708 | 11.82257 | 2666 ft | 159 kts | 84° |
| 2026-05-01 09:00 | 48.37044 | 11.83900 | 3129 ft | 172 kts | 60° |
| 2026-05-01 09:00 | 48.38029 | 11.85079 | 3402 ft | 196 kts | 27° |
| 2026-05-01 09:00 | 48.39365 | 11.85720 | 3787 ft | 209 kts | 22° |
| 2026-05-01 09:00 | 48.40859 | 11.86052 | 4237 ft | 222 kts | 4° |
| 2026-05-01 09:01 | 48.42385 | 11.85365 | 4675 ft | 237 kts | 331° |
| 2026-05-01 09:01 | 48.43625 | 11.83625 | 5022 ft | 257 kts | 312° |
| 2026-05-01 09:01 | 48.44808 | 11.81480 | 5358 ft | 273 kts | 310° |
| 2026-05-01 09:01 | 48.46028 | 11.79255 | 5941 ft | 278 kts | 311° |
| 2026-05-01 09:02 | 48.47273 | 11.77017 | 6657 ft | 280 kts | 311° |
| 2026-05-01 09:02 | 48.48540 | 11.74760 | 7349 ft | 283 kts | 312° |
| 2026-05-01 09:02 | 48.49822 | 11.72487 | 7968 ft | 288 kts | 313° |
| 2026-05-01 09:02 | 48.51143 | 11.70163 | 8598 ft | 294 kts | 313° |
| 2026-05-01 09:03 | 48.52480 | 11.67828 | 9345 ft | 293 kts | 314° |
| 2026-05-01 09:03 | 48.53828 | 11.65538 | 10175 ft | 291 kts | 316° |
| 2026-05-01 09:03 | 48.55240 | 11.63343 | 10830 ft | 292 kts | 319° |
| 2026-05-01 09:03 | 48.56754 | 11.61256 | 11388 ft | 297 kts | 323° |